sensor_id;sensor_type;location;lat;lon;timestamp;temperature;humidity
18339;DHT22;9295;44.484;11.240;2022-07-29T00:01:41;23.10;99.90
18339;DHT22;9295;44.484;11.240;2022-07-29T00:04:12;23.00;99.90
18339;DHT22;9295;44.484;11.240;2022-07-29T00:06:42;23.00;99.90
18339;DHT22;9295;44.484;11.240;2022-07-29T00:09:11;23.10;99.90
18339;DHT22;9295;44.484;11.240;2022-07-29T00:11:39;23.10;99.90
18339;DHT22;9295;44.484;11.240;2022-07-29T00:14:08;23.10;99.90
18339;DHT22;9295;44.484;11.240;2022-07-29T00:16:37;23.10;99.90
18339;DHT22;9295;44.484;11.240;2022-07-29T00:19:09;23.10;99.90
18339;DHT22;9295;44.484;11.240;2022-07-29T00:21:38;23.10;99.90
18339;DHT22;9295;44.484;11.240;2022-07-29T00:24:09;23.20;99.90
18339;DHT22;9295;44.484;11.240;2022-07-29T00:26:39;23.20;99.90
18339;DHT22;9295;44.484;11.240;2022-07-29T00:29:07;23.20;99.90
18339;DHT22;9295;44.484;11.240;2022-07-29T00:31:56;23.10;99.90
18339;DHT22;9295;44.484;11.240;2022-07-29T00:34:24;23.10;99.90
18339;DHT22;9295;44.484;11.240;2022-07-29T00:37:12;23.00;99.90
18339;DHT22;9295;44.484;11.240;2022-07-29T00:39:43;23.00;99.90
18339;DHT22;9295;44.484;11.240;2022-07-29T00:42:11;22.90;99.90
18339;DHT22;9295;44.484;11.240;2022-07-29T00:44:41;22.80;99.90
18339;DHT22;9295;44.484;11.240;2022-07-29T00:47:10;22.80;99.90
18339;DHT22;9295;44.484;11.240;2022-07-29T00:49:40;22.80;99.90
18339;DHT22;9295;44.484;11.240;2022-07-29T00:52:10;22.70;99.90
18339;DHT22;9295;44.484;11.240;2022-07-29T00:54:44;22.60;99.90
18339;DHT22;9295;44.484;11.240;2022-07-29T00:57:12;22.70;99.90
18339;DHT22;9295;44.484;11.240;2022-07-29T00:59:41;22.70;99.90
18339;DHT22;9295;44.484;11.240;2022-07-29T01:02:11;22.80;99.90
18339;DHT22;9295;44.484;11.240;2022-07-29T01:04:39;22.80;99.90
18339;DHT22;9295;44.484;11.240;2022-07-29T01:07:10;22.80;99.90
18339;DHT22;9295;44.484;11.240;2022-07-29T01:09:39;22.90;99.90
18339;DHT22;9295;44.484;11.240;2022-07-29T01:12:16;22.80;99.90
18339;DHT22;9295;44.484;11.240;2022-07-29T01:14:46;22.80;99.90
18339;DHT22;9295;44.484;11.240;2022-07-29T01:17:20;22.90;99.90
18339;DHT22;9295;44.484;11.240;2022-07-29T01:19:56;22.90;99.90
18339;DHT22;9295;44.484;11.240;2022-07-29T01:22:37;23.00;99.90
18339;DHT22;9295;44.484;11.240;2022-07-29T01:25:31;23.00;99.90
18339;DHT22;9295;44.484;11.240;2022-07-29T01:28:17;23.00;99.90
18339;DHT22;9295;44.484;11.240;2022-07-29T01:30:53;22.90;99.90
18339;DHT22;9295;44.484;11.240;2022-07-29T01:33:24;22.80;99.90
18339;DHT22;9295;44.484;11.240;2022-07-29T01:36:14;22.80;99.90
18339;DHT22;9295;44.484;11.240;2022-07-29T01:38:54;22.70;99.90
18339;DHT22;9295;44.484;11.240;2022-07-29T01:41:23;22.60;99.90
18339;DHT22;9295;44.484;11.240;2022-07-29T01:43:57;22.60;99.90
18339;DHT22;9295;44.484;11.240;2022-07-29T01:46:33;22.50;99.90
18339;DHT22;9295;44.484;11.240;2022-07-29T01:49:09;22.40;99.90
18339;DHT22;9295;44.484;11.240;2022-07-29T01:51:43;22.40;99.90
18339;DHT22;9295;44.484;11.240;2022-07-29T01:54:18;22.20;99.90
18339;DHT22;9295;44.484;11.240;2022-07-29T01:56:51;22.20;99.90
18339;DHT22;9295;44.484;11.240;2022-07-29T01:59:21;22.10;99.90
18339;DHT22;9295;44.484;11.240;2022-07-29T02:01:57;22.00;99.90
18339;DHT22;9295;44.484;11.240;2022-07-29T02:04:27;22.00;99.90
18339;DHT22;9295;44.484;11.240;2022-07-29T02:07:02;22.10;99.90
18339;DHT22;9295;44.484;11.240;2022-07-29T02:09:34;22.00;99.90
18339;DHT22;9295;44.484;11.240;2022-07-29T02:12:04;22.00;99.90
18339;DHT22;9295;44.484;11.240;2022-07-29T02:14:37;22.00;99.90
18339;DHT22;9295;44.484;11.240;2022-07-29T02:17:08;22.10;99.90
18339;DHT22;9295;44.484;11.240;2022-07-29T02:19:37;22.10;99.90
18339;DHT22;9295;44.484;11.240;2022-07-29T02:22:07;22.00;99.90
18339;DHT22;9295;44.484;11.240;2022-07-29T02:24:37;22.00;99.90
18339;DHT22;9295;44.484;11.240;2022-07-29T02:27:08;22.00;99.90
18339;DHT22;9295;44.484;11.240;2022-07-29T02:29:39;22.10;99.90
18339;DHT22;9295;44.484;11.240;2022-07-29T02:32:11;22.10;99.90
18339;DHT22;9295;44.484;11.240;2022-07-29T02:34:43;22.10;99.90
18339;DHT22;9295;44.484;11.240;2022-07-29T02:37:12;22.00;99.90
18339;DHT22;9295;44.484;11.240;2022-07-29T02:39:43;21.90;99.90
18339;DHT22;9295;44.484;11.240;2022-07-29T02:42:16;21.90;99.90
18339;DHT22;9295;44.484;11.240;2022-07-29T02:44:45;21.80;99.90
18339;DHT22;9295;44.484;11.240;2022-07-29T02:47:18;21.90;99.90
18339;DHT22;9295;44.484;11.240;2022-07-29T02:49:52;21.90;99.90
18339;DHT22;9295;44.484;11.240;2022-07-29T02:52:29;21.90;99.90
18339;DHT22;9295;44.484;11.240;2022-07-29T02:55:01;22.00;99.90
18339;DHT22;9295;44.484;11.240;2022-07-29T02:57:33;22.00;99.90
18339;DHT22;9295;44.484;11.240;2022-07-29T03:00:22;22.10;99.90
18339;DHT22;9295;44.484;11.240;2022-07-29T03:02:54;22.00;99.90
18339;DHT22;9295;44.484;11.240;2022-07-29T03:05:23;22.00;99.90
18339;DHT22;9295;44.484;11.240;2022-07-29T03:08:00;22.00;99.90
18339;DHT22;9295;44.484;11.240;2022-07-29T03:10:30;22.00;99.90
18339;DHT22;9295;44.484;11.240;2022-07-29T03:13:00;22.00;99.90
18339;DHT22;9295;44.484;11.240;2022-07-29T03:15:29;22.00;99.90
18339;DHT22;9295;44.484;11.240;2022-07-29T03:18:01;22.00;99.90
18339;DHT22;9295;44.484;11.240;2022-07-29T03:20:30;21.90;99.90
18339;DHT22;9295;44.484;11.240;2022-07-29T03:22:59;21.90;99.90
18339;DHT22;9295;44.484;11.240;2022-07-29T03:25:30;21.80;99.90
18339;DHT22;9295;44.484;11.240;2022-07-29T03:27:59;21.80;99.90
18339;DHT22;9295;44.484;11.240;2022-07-29T03:30:28;21.90;99.90
18339;DHT22;9295;44.484;11.240;2022-07-29T03:32:59;21.90;99.90
18339;DHT22;9295;44.484;11.240;2022-07-29T03:35:28;21.90;99.90
18339;DHT22;9295;44.484;11.240;2022-07-29T03:37:58;22.00;99.90
18339;DHT22;9295;44.484;11.240;2022-07-29T03:40:31;22.10;99.90
18339;DHT22;9295;44.484;11.240;2022-07-29T03:43:02;22.10;99.90
18339;DHT22;9295;44.484;11.240;2022-07-29T03:45:35;22.10;99.90
18339;DHT22;9295;44.484;11.240;2022-07-29T03:48:09;22.20;99.90
18339;DHT22;9295;44.484;11.240;2022-07-29T03:50:38;22.20;99.90
18339;DHT22;9295;44.484;11.240;2022-07-29T03:53:07;22.20;99.90
18339;DHT22;9295;44.484;11.240;2022-07-29T03:55:40;22.10;99.90
18339;DHT22;9295;44.484;11.240;2022-07-29T03:58:11;22.10;99.90
18339;DHT22;9295;44.484;11.240;2022-07-29T04:00:41;22.10;99.90
18339;DHT22;9295;44.484;11.240;2022-07-29T04:03:12;22.10;99.90
18339;DHT22;9295;44.484;11.240;2022-07-29T04:05:42;22.00;99.90
18339;DHT22;9295;44.484;11.240;2022-07-29T04:08:10;22.00;99.90
18339;DHT22;9295;44.484;11.240;2022-07-29T04:10:39;22.00;99.90
18339;DHT22;9295;44.484;11.240;2022-07-29T04:13:10;21.90;99.90
18339;DHT22;9295;44.484;11.240;2022-07-29T04:15:41;21.90;99.90
18339;DHT22;9295;44.484;11.240;2022-07-29T04:18:10;21.90;99.90
18339;DHT22;9295;44.484;11.240;2022-07-29T04:20:40;21.90;99.90
18339;DHT22;9295;44.484;11.240;2022-07-29T04:23:08;21.90;99.90
18339;DHT22;9295;44.484;11.240;2022-07-29T04:25:38;22.00;99.90
18339;DHT22;9295;44.484;11.240;2022-07-29T04:28:08;22.00;99.90
18339;DHT22;9295;44.484;11.240;2022-07-29T04:30:37;22.10;99.90
18339;DHT22;9295;44.484;11.240;2022-07-29T04:33:08;22.10;99.90
18339;DHT22;9295;44.484;11.240;2022-07-29T04:35:37;22.20;99.90
18339;DHT22;9295;44.484;11.240;2022-07-29T04:38:18;22.30;99.90
18339;DHT22;9295;44.484;11.240;2022-07-29T04:40:46;22.40;99.90
18339;DHT22;9295;44.484;11.240;2022-07-29T04:43:16;22.40;99.90
18339;DHT22;9295;44.484;11.240;2022-07-29T04:45:49;22.50;99.90
18339;DHT22;9295;44.484;11.240;2022-07-29T04:48:19;22.50;99.90
18339;DHT22;9295;44.484;11.240;2022-07-29T04:50:54;22.50;99.90
18339;DHT22;9295;44.484;11.240;2022-07-29T04:53:25;22.60;99.90
18339;DHT22;9295;44.484;11.240;2022-07-29T04:55:54;22.50;99.90
18339;DHT22;9295;44.484;11.240;2022-07-29T04:58:22;22.50;99.90
18339;DHT22;9295;44.484;11.240;2022-07-29T05:00:51;22.50;99.90
18339;DHT22;9295;44.484;11.240;2022-07-29T05:03:21;22.60;99.90
18339;DHT22;9295;44.484;11.240;2022-07-29T05:05:52;22.60;99.90
18339;DHT22;9295;44.484;11.240;2022-07-29T05:08:21;22.70;99.90
18339;DHT22;9295;44.484;11.240;2022-07-29T05:10:51;22.70;99.90
18339;DHT22;9295;44.484;11.240;2022-07-29T05:13:19;22.90;99.90
18339;DHT22;9295;44.484;11.240;2022-07-29T05:15:48;22.90;99.90
18339;DHT22;9295;44.484;11.240;2022-07-29T05:18:17;23.10;99.90
18339;DHT22;9295;44.484;11.240;2022-07-29T05:20:51;23.20;99.90
18339;DHT22;9295;44.484;11.240;2022-07-29T05:23:20;23.40;99.90
18339;DHT22;9295;44.484;11.240;2022-07-29T05:25:49;23.60;99.90
18339;DHT22;9295;44.484;11.240;2022-07-29T05:28:22;23.80;99.90
18339;DHT22;9295;44.484;11.240;2022-07-29T05:30:50;24.00;99.90
18339;DHT22;9295;44.484;11.240;2022-07-29T05:33:19;24.20;99.90
18339;DHT22;9295;44.484;11.240;2022-07-29T05:36:03;24.40;99.90
18339;DHT22;9295;44.484;11.240;2022-07-29T05:38:35;24.60;99.90
18339;DHT22;9295;44.484;11.240;2022-07-29T05:41:04;24.70;99.90
18339;DHT22;9295;44.484;11.240;2022-07-29T05:43:34;24.90;99.90
18339;DHT22;9295;44.484;11.240;2022-07-29T05:46:03;25.00;99.90
18339;DHT22;9295;44.484;11.240;2022-07-29T05:48:31;25.20;99.90
18339;DHT22;9295;44.484;11.240;2022-07-29T05:51:00;25.40;99.90
18339;DHT22;9295;44.484;11.240;2022-07-29T05:53:29;25.60;99.90
18339;DHT22;9295;44.484;11.240;2022-07-29T05:55:58;25.70;99.90
18339;DHT22;9295;44.484;11.240;2022-07-29T05:58:28;25.90;99.90
18339;DHT22;9295;44.484;11.240;2022-07-29T06:00:58;26.00;99.90
18339;DHT22;9295;44.484;11.240;2022-07-29T06:03:28;26.10;99.90
18339;DHT22;9295;44.484;11.240;2022-07-29T06:05:57;26.10;99.90
18339;DHT22;9295;44.484;11.240;2022-07-29T06:08:26;26.20;99.90
18339;DHT22;9295;44.484;11.240;2022-07-29T06:10:55;26.20;99.90
18339;DHT22;9295;44.484;11.240;2022-07-29T06:13:23;26.40;99.90
18339;DHT22;9295;44.484;11.240;2022-07-29T06:15:51;26.50;99.90
18339;DHT22;9295;44.484;11.240;2022-07-29T06:18:22;26.60;99.90
18339;DHT22;9295;44.484;11.240;2022-07-29T06:20:51;26.70;99.90
18339;DHT22;9295;44.484;11.240;2022-07-29T06:23:20;26.80;99.90
18339;DHT22;9295;44.484;11.240;2022-07-29T06:25:49;26.90;99.90
18339;DHT22;9295;44.484;11.240;2022-07-29T06:28:18;27.10;99.90
18339;DHT22;9295;44.484;11.240;2022-07-29T06:30:47;27.10;99.90
18339;DHT22;9295;44.484;11.240;2022-07-29T06:33:19;27.20;99.90
18339;DHT22;9295;44.484;11.240;2022-07-29T06:35:50;27.30;99.90
18339;DHT22;9295;44.484;11.240;2022-07-29T06:38:21;27.40;99.90
18339;DHT22;9295;44.484;11.240;2022-07-29T06:41:01;27.50;99.90
18339;DHT22;9295;44.484;11.240;2022-07-29T06:43:36;27.70;99.90
18339;DHT22;9295;44.484;11.240;2022-07-29T06:46:18;27.80;99.90
18339;DHT22;9295;44.484;11.240;2022-07-29T06:48:48;28.00;99.90
18339;DHT22;9295;44.484;11.240;2022-07-29T06:51:18;28.00;99.90
18339;DHT22;9295;44.484;11.240;2022-07-29T06:53:50;28.20;99.90
18339;DHT22;9295;44.484;11.240;2022-07-29T06:56:28;28.20;99.90
18339;DHT22;9295;44.484;11.240;2022-07-29T06:58:57;28.20;99.90
18339;DHT22;9295;44.484;11.240;2022-07-29T07:01:27;28.20;99.90
18339;DHT22;9295;44.484;11.240;2022-07-29T07:03:58;28.20;99.90
18339;DHT22;9295;44.484;11.240;2022-07-29T07:06:30;28.40;99.90
18339;DHT22;9295;44.484;11.240;2022-07-29T07:08:59;28.40;99.90
18339;DHT22;9295;44.484;11.240;2022-07-29T07:11:28;28.40;99.90
18339;DHT22;9295;44.484;11.240;2022-07-29T07:13:58;28.40;99.90
18339;DHT22;9295;44.484;11.240;2022-07-29T07:16:30;28.50;99.90
18339;DHT22;9295;44.484;11.240;2022-07-29T07:18:59;28.50;99.90
18339;DHT22;9295;44.484;11.240;2022-07-29T07:21:30;28.70;99.90
18339;DHT22;9295;44.484;11.240;2022-07-29T07:23:59;28.80;99.90
18339;DHT22;9295;44.484;11.240;2022-07-29T07:26:28;28.70;99.90
18339;DHT22;9295;44.484;11.240;2022-07-29T07:28:56;28.70;99.90
18339;DHT22;9295;44.484;11.240;2022-07-29T07:31:25;28.80;99.90
18339;DHT22;9295;44.484;11.240;2022-07-29T07:33:54;28.80;99.90
18339;DHT22;9295;44.484;11.240;2022-07-29T07:36:26;28.90;99.90
18339;DHT22;9295;44.484;11.240;2022-07-29T07:38:56;29.00;99.90
18339;DHT22;9295;44.484;11.240;2022-07-29T07:41:24;29.10;99.90
18339;DHT22;9295;44.484;11.240;2022-07-29T07:43:58;29.10;99.90
18339;DHT22;9295;44.484;11.240;2022-07-29T07:46:27;29.10;99.90
18339;DHT22;9295;44.484;11.240;2022-07-29T07:48:56;29.20;99.90
18339;DHT22;9295;44.484;11.240;2022-07-29T07:51:24;29.30;99.90
18339;DHT22;9295;44.484;11.240;2022-07-29T07:53:55;29.30;99.90
18339;DHT22;9295;44.484;11.240;2022-07-29T07:56:24;29.20;99.90
18339;DHT22;9295;44.484;11.240;2022-07-29T07:58:56;29.40;99.90
18339;DHT22;9295;44.484;11.240;2022-07-29T08:01:25;29.60;99.90
18339;DHT22;9295;44.484;11.240;2022-07-29T08:03:54;29.60;99.90
18339;DHT22;9295;44.484;11.240;2022-07-29T08:06:22;29.80;99.90
18339;DHT22;9295;44.484;11.240;2022-07-29T08:08:52;29.80;99.90
18339;DHT22;9295;44.484;11.240;2022-07-29T08:11:24;29.70;99.90
18339;DHT22;9295;44.484;11.240;2022-07-29T08:13:53;29.60;99.90
18339;DHT22;9295;44.484;11.240;2022-07-29T08:16:23;29.50;99.90
18339;DHT22;9295;44.484;11.240;2022-07-29T08:18:58;29.60;99.90
18339;DHT22;9295;44.484;11.240;2022-07-29T08:21:27;29.60;99.90
18339;DHT22;9295;44.484;11.240;2022-07-29T08:23:56;29.80;99.90
18339;DHT22;9295;44.484;11.240;2022-07-29T08:26:58;30.00;99.90
18339;DHT22;9295;44.484;11.240;2022-07-29T08:29:27;30.30;99.90
18339;DHT22;9295;44.484;11.240;2022-07-29T08:31:56;30.20;99.90
18339;DHT22;9295;44.484;11.240;2022-07-29T08:34:25;30.10;99.90
18339;DHT22;9295;44.484;11.240;2022-07-29T08:36:54;30.20;99.90
18339;DHT22;9295;44.484;11.240;2022-07-29T08:39:24;30.30;99.90
18339;DHT22;9295;44.484;11.240;2022-07-29T08:41:53;30.20;99.90
18339;DHT22;9295;44.484;11.240;2022-07-29T08:44:25;30.20;99.90
18339;DHT22;9295;44.484;11.240;2022-07-29T08:46:57;30.40;99.90
18339;DHT22;9295;44.484;11.240;2022-07-29T08:49:26;30.50;99.90
18339;DHT22;9295;44.484;11.240;2022-07-29T08:51:55;30.50;99.90
18339;DHT22;9295;44.484;11.240;2022-07-29T08:54:26;30.30;99.90
18339;DHT22;9295;44.484;11.240;2022-07-29T08:56:56;30.40;99.90
18339;DHT22;9295;44.484;11.240;2022-07-29T08:59:27;30.40;99.90
18339;DHT22;9295;44.484;11.240;2022-07-29T09:01:57;30.40;99.90
18339;DHT22;9295;44.484;11.240;2022-07-29T09:04:31;30.40;99.90
18339;DHT22;9295;44.484;11.240;2022-07-29T09:07:04;30.40;99.90
18339;DHT22;9295;44.484;11.240;2022-07-29T09:09:34;30.30;99.90
18339;DHT22;9295;44.484;11.240;2022-07-29T09:12:03;30.40;99.90
18339;DHT22;9295;44.484;11.240;2022-07-29T09:14:34;30.50;99.90
18339;DHT22;9295;44.484;11.240;2022-07-29T09:17:03;30.70;99.90
18339;DHT22;9295;44.484;11.240;2022-07-29T09:19:34;31.00;99.90
18339;DHT22;9295;44.484;11.240;2022-07-29T09:22:06;31.20;99.90
18339;DHT22;9295;44.484;11.240;2022-07-29T09:24:41;31.30;99.90
18339;DHT22;9295;44.484;11.240;2022-07-29T09:27:19;31.10;99.90
18339;DHT22;9295;44.484;11.240;2022-07-29T09:29:57;30.90;99.90
18339;DHT22;9295;44.484;11.240;2022-07-29T09:32:26;30.90;99.90
18339;DHT22;9295;44.484;11.240;2022-07-29T09:35:15;30.70;99.90
18339;DHT22;9295;44.484;11.240;2022-07-29T09:37:44;30.70;99.90
18339;DHT22;9295;44.484;11.240;2022-07-29T09:40:14;30.70;99.90
18339;DHT22;9295;44.484;11.240;2022-07-29T09:42:46;30.70;99.90
18339;DHT22;9295;44.484;11.240;2022-07-29T09:45:28;30.90;99.90
18339;DHT22;9295;44.484;11.240;2022-07-29T09:47:57;30.90;99.90
18339;DHT22;9295;44.484;11.240;2022-07-29T09:50:38;30.90;99.90
18339;DHT22;9295;44.484;11.240;2022-07-29T09:53:07;30.90;99.90
18339;DHT22;9295;44.484;11.240;2022-07-29T09:55:47;31.00;99.90
18339;DHT22;9295;44.484;11.240;2022-07-29T09:58:18;31.30;99.90
18339;DHT22;9295;44.484;11.240;2022-07-29T10:00:50;31.40;99.90
18339;DHT22;9295;44.484;11.240;2022-07-29T10:03:19;31.40;99.90
18339;DHT22;9295;44.484;11.240;2022-07-29T10:06:07;31.20;99.90
18339;DHT22;9295;44.484;11.240;2022-07-29T10:08:36;31.20;99.90
18339;DHT22;9295;44.484;11.240;2022-07-29T10:11:12;31.20;99.90
18339;DHT22;9295;44.484;11.240;2022-07-29T10:13:42;31.30;99.90
18339;DHT22;9295;44.484;11.240;2022-07-29T10:16:14;31.40;99.90
18339;DHT22;9295;44.484;11.240;2022-07-29T10:18:44;31.50;99.90
18339;DHT22;9295;44.484;11.240;2022-07-29T10:21:14;31.40;99.90
18339;DHT22;9295;44.484;11.240;2022-07-29T10:24:01;31.10;99.90
18339;DHT22;9295;44.484;11.240;2022-07-29T10:26:30;31.00;99.90
18339;DHT22;9295;44.484;11.240;2022-07-29T10:29:00;31.00;99.90
18339;DHT22;9295;44.484;11.240;2022-07-29T10:31:38;30.90;99.90
18339;DHT22;9295;44.484;11.240;2022-07-29T10:34:16;30.90;99.90
18339;DHT22;9295;44.484;11.240;2022-07-29T10:36:56;30.80;99.90
18339;DHT22;9295;44.484;11.240;2022-07-29T10:39:41;31.10;99.90
18339;DHT22;9295;44.484;11.240;2022-07-29T10:42:18;31.10;99.30
18339;DHT22;9295;44.484;11.240;2022-07-29T10:45:02;31.10;99.20
18339;DHT22;9295;44.484;11.240;2022-07-29T10:47:33;31.00;99.20
18339;DHT22;9295;44.484;11.240;2022-07-29T10:50:04;30.90;98.90
18339;DHT22;9295;44.484;11.240;2022-07-29T10:52:52;30.90;99.10
18339;DHT22;9295;44.484;11.240;2022-07-29T10:55:34;31.10;98.90
18339;DHT22;9295;44.484;11.240;2022-07-29T10:58:14;31.30;99.10
18339;DHT22;9295;44.484;11.240;2022-07-29T11:00:46;31.50;98.70
18339;DHT22;9295;44.484;11.240;2022-07-29T11:03:48;31.40;99.00
18339;DHT22;9295;44.484;11.240;2022-07-29T11:06:24;31.40;98.30
18339;DHT22;9295;44.484;11.240;2022-07-29T11:09:15;31.40;98.90
18339;DHT22;9295;44.484;11.240;2022-07-29T11:11:49;31.50;98.50
18339;DHT22;9295;44.484;11.240;2022-07-29T11:14:54;31.60;98.30
18339;DHT22;9295;44.484;11.240;2022-07-29T11:17:24;31.70;98.60
18339;DHT22;9295;44.484;11.240;2022-07-29T11:20:32;31.60;98.60
18339;DHT22;9295;44.484;11.240;2022-07-29T11:23:21;31.60;98.60
18339;DHT22;9295;44.484;11.240;2022-07-29T11:26:15;31.50;99.00
18339;DHT22;9295;44.484;11.240;2022-07-29T11:28:52;31.50;98.40
18339;DHT22;9295;44.484;11.240;2022-07-29T11:31:37;31.80;97.60
18339;DHT22;9295;44.484;11.240;2022-07-29T11:34:23;31.90;97.30
18339;DHT22;9295;44.484;11.240;2022-07-29T11:37:20;32.00;97.10
18339;DHT22;9295;44.484;11.240;2022-07-29T11:40:16;32.20;97.00
18339;DHT22;9295;44.484;11.240;2022-07-29T11:42:49;32.40;97.00
18339;DHT22;9295;44.484;11.240;2022-07-29T11:45:24;32.60;96.40
18339;DHT22;9295;44.484;11.240;2022-07-29T11:48:18;32.80;96.10
18339;DHT22;9295;44.484;11.240;2022-07-29T11:51:09;33.00;95.50
18339;DHT22;9295;44.484;11.240;2022-07-29T11:53:49;33.20;95.00
18339;DHT22;9295;44.484;11.240;2022-07-29T11:56:21;33.40;94.50
18339;DHT22;9295;44.484;11.240;2022-07-29T11:59:03;33.50;94.20
18339;DHT22;9295;44.484;11.240;2022-07-29T12:01:53;33.40;93.70
18339;DHT22;9295;44.484;11.240;2022-07-29T12:04:48;33.30;93.70
18339;DHT22;9295;44.484;11.240;2022-07-29T12:07:18;33.20;93.80
18339;DHT22;9295;44.484;11.240;2022-07-29T12:09:51;33.40;93.50
18339;DHT22;9295;44.484;11.240;2022-07-29T12:12:24;33.50;93.60
18339;DHT22;9295;44.484;11.240;2022-07-29T12:14:54;33.50;93.20
18339;DHT22;9295;44.484;11.240;2022-07-29T12:17:28;33.50;92.90
18339;DHT22;9295;44.484;11.240;2022-07-29T12:19:59;33.50;93.20
18339;DHT22;9295;44.484;11.240;2022-07-29T12:22:32;33.40;92.90
18339;DHT22;9295;44.484;11.240;2022-07-29T12:25:09;33.50;92.90
18339;DHT22;9295;44.484;11.240;2022-07-29T12:28:00;33.60;92.80
18339;DHT22;9295;44.484;11.240;2022-07-29T12:30:50;33.70;92.40
18339;DHT22;9295;44.484;11.240;2022-07-29T12:33:24;33.60;92.30
18339;DHT22;9295;44.484;11.240;2022-07-29T12:35:57;33.70;92.30
18339;DHT22;9295;44.484;11.240;2022-07-29T12:38:34;33.80;92.10
18339;DHT22;9295;44.484;11.240;2022-07-29T12:41:10;33.80;91.90
18339;DHT22;9295;44.484;11.240;2022-07-29T12:43:52;33.90;92.00
18339;DHT22;9295;44.484;11.240;2022-07-29T12:46:23;34.10;91.30
18339;DHT22;9295;44.484;11.240;2022-07-29T12:48:53;34.10;91.10
18339;DHT22;9295;44.484;11.240;2022-07-29T12:51:29;33.90;91.20
18339;DHT22;9295;44.484;11.240;2022-07-29T12:54:06;33.90;91.20
18339;DHT22;9295;44.484;11.240;2022-07-29T12:56:37;33.90;91.00
18339;DHT22;9295;44.484;11.240;2022-07-29T12:59:17;33.90;91.10
18339;DHT22;9295;44.484;11.240;2022-07-29T13:01:48;33.90;91.20
18339;DHT22;9295;44.484;11.240;2022-07-29T13:04:28;33.90;91.40
18339;DHT22;9295;44.484;11.240;2022-07-29T13:07:00;33.90;91.10
18339;DHT22;9295;44.484;11.240;2022-07-29T13:09:38;33.80;91.00
18339;DHT22;9295;44.484;11.240;2022-07-29T13:12:10;33.90;91.30
18339;DHT22;9295;44.484;11.240;2022-07-29T13:14:40;34.10;90.90
18339;DHT22;9295;44.484;11.240;2022-07-29T13:17:10;34.00;91.10
18339;DHT22;9295;44.484;11.240;2022-07-29T13:19:41;34.20;91.00
18339;DHT22;9295;44.484;11.240;2022-07-29T13:22:11;34.20;90.50
18339;DHT22;9295;44.484;11.240;2022-07-29T13:24:47;34.30;90.80
18339;DHT22;9295;44.484;11.240;2022-07-29T13:27:18;34.40;90.40
18339;DHT22;9295;44.484;11.240;2022-07-29T13:29:51;34.40;90.40
18339;DHT22;9295;44.484;11.240;2022-07-29T13:32:21;34.50;90.50
18339;DHT22;9295;44.484;11.240;2022-07-29T13:34:55;34.40;90.60
18339;DHT22;9295;44.484;11.240;2022-07-29T13:37:25;34.30;90.70
18339;DHT22;9295;44.484;11.240;2022-07-29T13:39:58;34.20;90.80
18339;DHT22;9295;44.484;11.240;2022-07-29T13:42:28;34.10;90.80
18339;DHT22;9295;44.484;11.240;2022-07-29T13:44:58;34.10;91.10
18339;DHT22;9295;44.484;11.240;2022-07-29T13:47:27;34.10;91.00
18339;DHT22;9295;44.484;11.240;2022-07-29T13:49:59;34.10;91.10
18339;DHT22;9295;44.484;11.240;2022-07-29T13:52:28;34.00;91.10
18339;DHT22;9295;44.484;11.240;2022-07-29T13:55:00;33.90;92.00
18339;DHT22;9295;44.484;11.240;2022-07-29T13:57:30;33.70;92.60
18339;DHT22;9295;44.484;11.240;2022-07-29T14:00:00;33.70;92.90
18339;DHT22;9295;44.484;11.240;2022-07-29T14:02:34;33.70;93.50
18339;DHT22;9295;44.484;11.240;2022-07-29T14:05:03;33.70;94.10
18339;DHT22;9295;44.484;11.240;2022-07-29T14:07:35;33.60;94.20
18339;DHT22;9295;44.484;11.240;2022-07-29T14:10:04;33.60;94.30
18339;DHT22;9295;44.484;11.240;2022-07-29T14:12:34;33.60;94.40
18339;DHT22;9295;44.484;11.240;2022-07-29T14:15:04;33.50;94.40
18339;DHT22;9295;44.484;11.240;2022-07-29T14:17:33;33.40;94.30
18339;DHT22;9295;44.484;11.240;2022-07-29T14:20:02;33.40;94.40
18339;DHT22;9295;44.484;11.240;2022-07-29T14:22:30;33.30;94.50
18339;DHT22;9295;44.484;11.240;2022-07-29T14:25:08;33.20;94.70
18339;DHT22;9295;44.484;11.240;2022-07-29T14:27:43;33.10;94.90
18339;DHT22;9295;44.484;11.240;2022-07-29T14:30:13;33.00;95.10
18339;DHT22;9295;44.484;11.240;2022-07-29T14:32:41;32.90;95.30
18339;DHT22;9295;44.484;11.240;2022-07-29T14:35:10;32.80;95.60
18339;DHT22;9295;44.484;11.240;2022-07-29T14:37:39;32.80;95.70
18339;DHT22;9295;44.484;11.240;2022-07-29T14:40:08;32.60;95.70
18339;DHT22;9295;44.484;11.240;2022-07-29T14:42:38;32.30;96.00
18339;DHT22;9295;44.484;11.240;2022-07-29T14:45:09;32.20;96.30
18339;DHT22;9295;44.484;11.240;2022-07-29T14:47:38;32.20;96.60
18339;DHT22;9295;44.484;11.240;2022-07-29T14:50:08;32.10;96.90
18339;DHT22;9295;44.484;11.240;2022-07-29T14:52:36;31.90;97.20
18339;DHT22;9295;44.484;11.240;2022-07-29T14:55:06;31.90;97.90
18339;DHT22;9295;44.484;11.240;2022-07-29T14:57:46;31.70;98.50
18339;DHT22;9295;44.484;11.240;2022-07-29T15:00:16;31.60;99.10
18339;DHT22;9295;44.484;11.240;2022-07-29T15:02:45;31.50;99.20
18339;DHT22;9295;44.484;11.240;2022-07-29T15:05:29;31.40;99.90
18339;DHT22;9295;44.484;11.240;2022-07-29T15:07:59;31.20;99.90
18339;DHT22;9295;44.484;11.240;2022-07-29T15:10:28;30.90;99.90
18339;DHT22;9295;44.484;11.240;2022-07-29T15:12:57;30.70;99.90
18339;DHT22;9295;44.484;11.240;2022-07-29T15:15:27;30.60;99.90
18339;DHT22;9295;44.484;11.240;2022-07-29T15:17:57;30.50;99.90
18339;DHT22;9295;44.484;11.240;2022-07-29T15:20:29;30.50;99.90
18339;DHT22;9295;44.484;11.240;2022-07-29T15:22:57;30.50;99.90
18339;DHT22;9295;44.484;11.240;2022-07-29T15:25:26;30.40;99.90
18339;DHT22;9295;44.484;11.240;2022-07-29T15:27:55;30.50;99.90
18339;DHT22;9295;44.484;11.240;2022-07-29T15:30:29;30.30;99.90
18339;DHT22;9295;44.484;11.240;2022-07-29T15:33:01;30.30;99.90
18339;DHT22;9295;44.484;11.240;2022-07-29T15:35:31;30.20;99.90
18339;DHT22;9295;44.484;11.240;2022-07-29T15:38:06;30.20;99.90
18339;DHT22;9295;44.484;11.240;2022-07-29T15:40:37;30.10;99.90
18339;DHT22;9295;44.484;11.240;2022-07-29T15:43:09;30.10;99.90
18339;DHT22;9295;44.484;11.240;2022-07-29T15:45:44;30.20;99.90
18339;DHT22;9295;44.484;11.240;2022-07-29T15:48:33;30.20;99.90
18339;DHT22;9295;44.484;11.240;2022-07-29T15:51:05;30.40;99.90
18339;DHT22;9295;44.484;11.240;2022-07-29T15:53:34;30.50;99.90
18339;DHT22;9295;44.484;11.240;2022-07-29T15:56:03;30.60;99.90
18339;DHT22;9295;44.484;11.240;2022-07-29T15:58:32;30.60;99.90
18339;DHT22;9295;44.484;11.240;2022-07-29T16:01:01;30.60;99.90
18339;DHT22;9295;44.484;11.240;2022-07-29T16:03:32;30.60;99.90
18339;DHT22;9295;44.484;11.240;2022-07-29T16:06:01;30.30;99.90